createdAt,value
2018-01-02T00:01:31.843Z,6.23
2018-01-02T00:03:59.466Z,7.37
2018-01-02T00:06:27.038Z,7.90
2018-01-02T00:08:54.650Z,5.47
2018-01-02T00:11:22.225Z,3.40
2018-01-02T00:13:49.814Z,3.10
2018-01-02T00:16:17.418Z,6.40
2018-01-02T00:18:44.985Z,4.47
2018-01-02T00:21:12.585Z,3.20
2018-01-02T00:23:40.174Z,11.53
2018-01-02T00:26:07.782Z,10.00
2018-01-02T00:28:36.692Z,3.40
2018-01-02T00:31:05.061Z,3.33
2018-01-02T00:33:34.059Z,6.07
2018-01-02T00:36:01.811Z,3.40
2018-01-02T00:38:29.387Z,3.43
2018-01-02T00:40:56.985Z,3.67
2018-01-02T00:43:24.562Z,4.50
2018-01-02T00:45:52.943Z,3.10
2018-01-02T00:48:20.522Z,3.17
2018-01-02T00:50:48.200Z,4.13
2018-01-02T00:53:15.777Z,2.93
2018-01-02T00:55:44.121Z,3.83
2018-01-02T00:58:11.771Z,2.90
2018-01-02T01:00:39.322Z,3.47
2018-01-02T01:03:06.917Z,2.53
2018-01-02T01:05:35.043Z,6.63
2018-01-02T01:08:03.811Z,2.70
2018-01-02T01:10:31.470Z,2.60
2018-01-02T01:12:59.079Z,2.60
2018-01-02T01:15:26.664Z,2.00
2018-01-02T01:17:54.275Z,2.90
2018-01-02T01:20:21.845Z,3.40
2018-01-02T01:22:49.463Z,2.37
2018-01-02T01:25:17.040Z,3.43
2018-01-02T01:27:45.415Z,6.20
2018-01-02T01:30:12.994Z,6.40
2018-01-02T01:32:40.600Z,3.10
2018-01-02T01:35:08.183Z,3.97
2018-01-02T01:37:36.209Z,3.60
2018-01-02T01:40:04.729Z,3.30
2018-01-02T01:42:32.315Z,6.10
2018-01-02T01:44:59.921Z,5.73
2018-01-02T01:47:27.496Z,3.03
2018-01-02T01:49:55.092Z,4.33
2018-01-02T01:52:22.672Z,3.07
2018-01-02T01:54:50.268Z,3.97
2018-01-02T01:57:17.866Z,3.30
2018-01-02T01:59:46.242Z,4.30
2018-01-02T02:02:13.817Z,4.10
2018-01-02T02:04:42.201Z,2.77
2018-01-02T02:07:09.785Z,3.40
2018-01-02T02:09:37.394Z,2.70
2018-01-02T02:12:05.704Z,2.67
2018-01-02T02:14:33.963Z,6.07
2018-01-02T02:17:01.554Z,3.33
2018-01-02T02:19:29.180Z,4.60
2018-01-02T02:21:56.763Z,6.30
2018-01-02T02:24:24.349Z,3.33
2018-01-02T02:26:51.958Z,2.83
2018-01-02T02:29:19.528Z,2.00
2018-01-02T02:31:47.139Z,2.90
2018-01-02T02:34:15.489Z,2.80
2018-01-02T02:36:43.120Z,2.50
2018-01-02T02:39:10.725Z,4.70
2018-01-02T02:41:38.324Z,3.47
2018-01-02T02:44:05.907Z,3.33
2018-01-02T02:46:35.514Z,3.53
2018-01-02T02:49:03.416Z,2.57
2018-01-02T02:51:31.089Z,2.97
2018-01-02T02:53:59.439Z,3.50
2018-01-02T02:56:27.054Z,2.80
2018-01-02T02:58:54.639Z,3.87
2018-01-02T03:01:22.242Z,2.97
2018-01-02T03:03:49.829Z,3.30
2018-01-02T03:06:17.438Z,4.90
2018-01-02T03:08:45.013Z,6.97
2018-01-02T03:11:12.603Z,2.80
2018-01-02T03:13:40.214Z,5.13
2018-01-02T03:16:07.802Z,3.43
2018-01-02T03:18:35.511Z,2.43
2018-01-02T03:21:03.484Z,5.93
2018-01-02T03:23:31.089Z,3.37
2018-01-02T03:25:58.675Z,3.23
2018-01-02T03:28:26.293Z,3.10
2018-01-02T03:30:54.721Z,4.10
2018-01-02T03:33:23.091Z,3.47
2018-01-02T03:35:50.682Z,2.83
2018-01-02T03:38:18.290Z,4.20
2018-01-02T03:40:45.865Z,2.80
2018-01-02T03:43:13.456Z,3.37
2018-01-02T03:45:41.030Z,2.47
2018-01-02T03:48:09.401Z,2.97
2018-01-02T03:50:36.978Z,7.70
2018-01-02T03:53:05.317Z,2.93
2018-01-02T03:55:34.812Z,3.07
2018-01-02T03:58:02.391Z,4.27
2018-01-02T04:00:29.999Z,4.67
2018-01-02T04:02:57.579Z,3.90
2018-01-02T04:05:25.173Z,5.57
2018-01-02T04:07:52.750Z,3.77
2018-01-02T04:10:21.114Z,3.90
2018-01-02T04:12:49.459Z,5.00
2018-01-02T04:15:17.074Z,3.10
2018-01-02T04:17:44.650Z,6.67
2018-01-02T04:20:12.252Z,3.90
2018-01-02T04:22:39.836Z,3.53
2018-01-02T04:25:07.589Z,3.77
2018-01-02T04:27:35.162Z,3.93
2018-01-02T04:30:03.458Z,4.37
2018-01-02T04:32:31.032Z,6.60
2018-01-02T04:34:59.406Z,4.07
2018-01-02T04:37:27.007Z,3.93
2018-01-02T04:39:55.374Z,4.33
2018-01-02T04:42:22.978Z,3.40
2018-01-02T04:44:52.068Z,4.00
2018-01-02T04:47:19.681Z,4.83
2018-01-02T04:49:47.266Z,2.97
2018-01-02T04:52:14.877Z,4.13
2018-01-02T04:54:42.461Z,4.00
2018-01-02T04:57:10.076Z,3.63
2018-01-02T04:59:37.686Z,3.60
2018-01-02T05:02:05.281Z,4.10
2018-01-02T05:04:33.965Z,4.50
2018-01-02T05:07:02.340Z,4.53
2018-01-02T05:09:29.920Z,4.10
2018-01-02T05:11:57.523Z,5.57
2018-01-02T05:14:25.098Z,4.53
2018-01-02T05:16:52.710Z,4.23
2018-01-02T05:19:21.223Z,4.30
2018-01-02T05:21:49.569Z,4.50
2018-01-02T05:24:17.187Z,4.70
2018-01-02T05:26:44.786Z,5.50
2018-01-02T05:29:12.407Z,4.40
2018-01-02T05:31:39.991Z,4.53
2018-01-02T05:34:07.627Z,3.87
2018-01-02T05:36:35.201Z,5.40
2018-01-02T05:39:03.481Z,4.67
2018-01-02T05:41:31.085Z,5.10
2018-01-02T05:43:58.694Z,4.37
2018-01-02T05:46:26.289Z,3.60
2018-01-02T05:48:53.888Z,4.50
2018-01-02T05:51:22.241Z,4.47
2018-01-02T05:53:49.840Z,4.67
2018-01-02T05:56:17.430Z,7.00
2018-01-02T05:58:45.045Z,5.17
2018-01-02T06:01:12.639Z,4.97
2018-01-02T06:03:40.233Z,4.63
2018-01-02T06:06:07.847Z,4.80
2018-01-02T06:08:35.676Z,5.30
2018-01-02T06:11:04.122Z,5.23
2018-01-02T06:13:31.721Z,6.70
2018-01-02T06:15:59.330Z,6.23
2018-01-02T06:18:26.927Z,4.90
2018-01-02T06:20:54.536Z,6.57
2018-01-02T06:23:22.123Z,6.23
2018-01-02T06:25:49.740Z,5.97
2018-01-02T06:28:17.342Z,5.27
2018-01-02T06:30:44.958Z,7.27
2018-01-02T06:33:13.511Z,7.57
2018-01-02T06:35:41.114Z,6.00
2018-01-02T06:38:08.695Z,9.40
2018-01-02T06:40:36.305Z,6.30
2018-01-02T06:43:04.485Z,5.67
2018-01-02T06:45:33.554Z,6.43
2018-01-02T06:48:01.172Z,4.43
2018-01-02T06:50:28.759Z,4.40
2018-01-02T06:52:56.424Z,4.30
2018-01-02T06:55:24.772Z,4.60
2018-01-02T06:57:52.373Z,5.20
2018-01-02T07:00:19.954Z,4.93
2018-01-02T07:02:47.567Z,4.33
2018-01-02T07:05:15.918Z,4.83
2018-01-02T07:07:43.525Z,4.77
2018-01-02T07:10:11.190Z,3.90
2018-01-02T07:12:39.190Z,3.97
2018-01-02T07:15:07.310Z,5.27
2018-01-02T07:17:36.042Z,4.40
2018-01-02T07:20:04.768Z,6.03
2018-01-02T07:22:32.383Z,4.23
2018-01-02T07:25:00.743Z,4.03
2018-01-02T07:27:28.359Z,6.50
2018-01-02T07:29:55.941Z,5.20
2018-01-02T07:32:23.564Z,8.10
2018-01-02T07:34:51.909Z,3.20
2018-01-02T07:37:19.498Z,3.17
2018-01-02T07:39:47.099Z,3.30
2018-01-02T07:42:14.678Z,2.67
2018-01-02T07:44:43.055Z,2.87
2018-01-02T07:47:10.630Z,3.47
2018-01-02T07:49:38.230Z,4.40
2018-01-02T07:52:05.812Z,3.00
2018-01-02T07:54:33.908Z,3.20
2018-01-02T07:57:01.481Z,2.57
2018-01-02T07:59:29.846Z,2.47
2018-01-02T08:01:57.434Z,3.57
2018-01-02T08:04:25.037Z,3.63
2018-01-02T08:06:52.609Z,5.00
2018-01-02T08:09:20.220Z,4.77
2018-01-02T08:11:48.613Z,3.70
2018-01-02T08:14:16.204Z,3.80
2018-01-02T08:16:44.533Z,4.43
2018-01-02T08:19:12.122Z,4.40
2018-01-02T08:21:39.731Z,4.20
2018-01-02T08:24:07.318Z,3.17
2018-01-02T08:26:35.539Z,2.67
2018-01-02T08:29:04.430Z,3.57
2018-01-02T08:31:32.043Z,3.37
2018-01-02T08:33:59.630Z,2.67
2018-01-02T08:36:27.229Z,2.80
2018-01-02T08:38:54.819Z,2.83
2018-01-02T08:41:22.430Z,2.50
2018-01-02T08:43:50.013Z,3.73
2018-01-02T08:46:17.631Z,3.17
2018-01-02T08:48:45.212Z,4.07
2018-01-02T08:51:13.553Z,4.17
2018-01-02T08:53:41.154Z,4.63
2018-01-02T08:56:08.729Z,3.30
2018-01-02T08:58:36.334Z,9.70
2018-01-02T09:01:05.878Z,4.23
2018-01-02T09:03:34.745Z,4.90
2018-01-02T09:06:02.346Z,7.23
2018-01-02T09:08:29.932Z,5.70
2018-01-02T09:10:57.537Z,5.93
2018-01-02T09:13:30.865Z,8.60
2018-01-02T09:15:58.467Z,4.67
2018-01-02T09:18:26.051Z,6.33
2018-01-02T09:20:53.671Z,6.27
2018-01-02T09:23:21.252Z,6.53
2018-01-02T09:25:48.883Z,5.87
2018-01-02T09:28:16.457Z,6.43
2018-01-02T09:30:44.802Z,6.90
2018-01-02T09:33:12.418Z,7.00
2018-01-02T09:35:39.988Z,6.53
2018-01-02T09:38:07.602Z,9.33
2018-01-02T09:40:35.573Z,8.77
2018-01-02T09:43:04.328Z,10.60
2018-01-02T09:45:34.298Z,10.57
2018-01-02T09:48:03.648Z,7.87
2018-01-02T09:50:31.262Z,10.17
2018-01-02T09:52:58.847Z,10.97
2018-01-02T09:55:26.466Z,12.40
2018-01-02T09:57:54.054Z,14.90
2018-01-02T10:00:21.680Z,13.90
2018-01-02T10:02:49.263Z,13.30
2018-01-02T10:05:16.841Z,17.17
2018-01-02T10:07:44.462Z,16.27
2018-01-02T10:10:12.061Z,12.57
2018-01-02T10:12:39.687Z,15.70
2018-01-02T10:15:08.052Z,14.13
2018-01-02T10:17:35.644Z,19.33
2018-01-02T10:20:04.419Z,14.93
2018-01-02T10:22:32.013Z,9.27
2018-01-02T10:24:59.624Z,9.20
2018-01-02T10:27:27.205Z,15.10
2018-01-02T10:29:54.822Z,11.70
2018-01-02T10:32:22.398Z,14.83
2018-01-02T10:34:49.987Z,14.47
2018-01-02T10:37:17.598Z,12.00
2018-01-02T10:39:45.173Z,10.90
2018-01-02T10:42:12.785Z,15.43
2018-01-02T10:44:41.139Z,14.00
2018-01-02T10:47:08.754Z,17.40
2018-01-02T10:49:36.336Z,15.13
2018-01-02T10:52:03.914Z,24.50
2018-01-02T10:54:31.527Z,14.53
2018-01-02T10:56:59.878Z,14.33
2018-01-02T10:59:27.486Z,11.77
2018-01-02T11:01:55.069Z,17.77
2018-01-02T11:04:22.701Z,13.50
2018-01-02T11:06:51.054Z,13.50
2018-01-02T11:09:18.650Z,19.67
2018-01-02T11:11:51.873Z,14.77
2018-01-02T11:14:25.140Z,13.10
2018-01-02T11:16:53.518Z,19.33
2018-01-02T11:19:21.100Z,21.80
2018-01-02T11:21:48.721Z,15.77
2018-01-02T11:24:16.309Z,19.80
2018-01-02T11:26:43.907Z,20.43
2018-01-02T11:29:11.522Z,21.50
2018-01-02T11:31:39.106Z,19.17
2018-01-02T11:34:06.723Z,25.00
2018-01-02T11:36:35.487Z,15.43
2018-01-02T11:39:04.231Z,25.70
2018-01-02T11:41:31.818Z,19.07
2018-01-02T11:43:59.411Z,22.50
2018-01-02T11:46:27.018Z,22.17
2018-01-02T11:48:55.379Z,19.80
2018-01-02T11:51:22.995Z,28.37
2018-01-02T11:53:50.578Z,22.10
2018-01-02T11:56:18.184Z,26.57
2018-01-02T11:58:45.758Z,23.93
2018-01-02T12:01:13.345Z,25.87
2018-01-02T12:03:40.959Z,19.13
2018-01-02T12:06:09.323Z,20.70
2018-01-02T12:08:36.957Z,19.20
2018-01-02T12:11:05.314Z,29.93
2018-01-02T12:13:32.956Z,23.50
2018-01-02T12:16:00.546Z,19.33
2018-01-02T12:18:28.129Z,21.53
2018-01-02T12:20:55.746Z,23.17
2018-01-02T12:23:23.332Z,17.33
2018-01-02T12:25:50.952Z,27.97
2018-01-02T12:28:18.550Z,21.23
2018-01-02T12:30:46.934Z,17.13
2018-01-02T12:33:14.532Z,20.30
2018-01-02T12:35:42.117Z,19.83
2018-01-02T12:38:09.731Z,16.40
2018-01-02T12:40:38.082Z,14.63
2018-01-02T12:43:05.702Z,20.87
2018-01-02T12:45:34.466Z,20.60
2018-01-02T12:48:02.080Z,22.43
2018-01-02T12:50:29.666Z,20.53
2018-01-02T12:52:57.250Z,19.17
2018-01-02T12:55:24.868Z,16.97
2018-01-02T12:57:52.457Z,13.80
2018-01-02T13:00:20.084Z,16.60
2018-01-02T13:02:47.667Z,10.40
2018-01-02T13:05:15.278Z,13.63
2018-01-02T13:07:42.858Z,14.53
2018-01-02T13:10:10.447Z,14.53
2018-01-02T13:12:38.062Z,14.73
2018-01-02T13:15:05.719Z,12.83
2018-01-02T13:17:34.409Z,17.30
2018-01-02T13:20:01.993Z,15.37
2018-01-02T13:22:29.579Z,13.47
2018-01-02T13:24:57.195Z,12.67
2018-01-02T13:27:24.773Z,9.23
2018-01-02T13:29:52.380Z,11.23
2018-01-02T13:32:19.965Z,14.20
2018-01-02T13:34:47.572Z,10.97
2018-01-02T13:37:15.153Z,12.07
2018-01-02T13:39:42.757Z,17.87
2018-01-02T13:42:10.371Z,8.67
2018-01-02T13:44:38.739Z,14.03
2018-01-02T13:47:07.136Z,10.00
2018-01-02T13:49:36.050Z,7.83
2018-01-02T13:52:04.583Z,6.97
2018-01-02T13:54:32.170Z,10.20
2018-01-02T13:56:59.757Z,13.70
2018-01-02T13:59:27.365Z,6.20
2018-01-02T14:01:55.724Z,10.97
2018-01-02T14:04:23.333Z,10.70
2018-01-02T14:06:50.905Z,8.97
2018-01-02T14:09:18.535Z,11.07
2018-01-02T14:11:46.881Z,9.37
2018-01-02T14:14:14.466Z,12.03
2018-01-02T14:16:42.064Z,12.53
2018-01-02T14:19:09.651Z,8.60
2018-01-02T14:21:37.268Z,11.40
2018-01-02T14:24:05.619Z,13.67
2018-01-02T14:26:34.155Z,10.70
2018-01-02T14:29:01.770Z,9.70
2018-01-02T14:31:30.122Z,10.87
2018-01-02T14:33:57.724Z,11.03
2018-01-02T14:36:25.303Z,8.37
2018-01-02T14:38:52.918Z,7.73
2018-01-02T14:41:20.510Z,13.83
2018-01-02T14:43:48.099Z,11.40
2018-01-02T14:46:15.714Z,12.63
2018-01-02T14:48:44.057Z,8.93
2018-01-02T14:51:11.653Z,7.70
2018-01-02T14:53:39.237Z,5.80
2018-01-02T14:56:06.902Z,10.07
2018-01-02T14:58:35.373Z,7.97
2018-01-02T15:01:03.654Z,5.17
2018-01-02T15:03:31.267Z,8.07
2018-01-02T15:05:59.623Z,8.43
2018-01-02T15:08:27.233Z,12.57
2018-01-02T15:10:54.825Z,11.80
2018-01-02T15:13:22.436Z,13.57
2018-01-02T15:15:50.027Z,12.97
2018-01-02T15:18:18.377Z,12.03
2018-01-02T15:20:45.998Z,11.40
2018-01-02T15:23:13.586Z,11.20
2018-01-02T15:25:41.217Z,8.20
2018-01-02T15:28:09.560Z,13.27
2018-01-02T15:30:37.178Z,7.77
2018-01-02T15:33:06.005Z,6.20
2018-01-02T15:35:35.567Z,7.07
2018-01-02T15:38:04.266Z,7.07
2018-01-02T15:40:32.604Z,6.37
2018-01-02T15:43:00.242Z,4.50
2018-01-02T15:45:27.818Z,8.47
2018-01-02T15:47:55.437Z,4.33
2018-01-02T15:50:23.017Z,5.13
2018-01-02T15:52:50.597Z,10.20
2018-01-02T15:55:18.201Z,6.83
2018-01-02T15:57:45.785Z,4.40
2018-01-02T16:00:13.403Z,12.20
2018-01-02T16:02:40.981Z,5.10
2018-01-02T16:05:09.362Z,7.30
2018-01-02T16:07:36.935Z,8.40
2018-01-02T16:10:05.369Z,5.93
2018-01-02T16:12:34.668Z,10.83
2018-01-02T16:15:02.254Z,10.93
2018-01-02T16:17:29.900Z,5.53
2018-01-02T16:19:57.483Z,6.30
2018-01-02T16:22:25.066Z,7.77
2018-01-02T16:24:53.433Z,9.10
2018-01-02T16:27:21.027Z,8.40
2018-01-02T16:29:48.650Z,10.17
2018-01-02T16:32:16.237Z,9.57
2018-01-02T16:34:43.865Z,8.30
2018-01-02T16:37:11.442Z,7.00
2018-01-02T16:39:39.030Z,17.53
2018-01-02T16:42:06.670Z,10.93
2018-01-02T16:44:35.150Z,6.77
2018-01-02T16:47:03.419Z,5.10
2018-01-02T16:49:31.005Z,5.97
2018-01-02T16:51:58.622Z,9.03
2018-01-02T16:54:26.207Z,6.40
2018-01-02T16:56:53.791Z,9.13
2018-01-02T16:59:21.441Z,6.43
2018-01-02T17:01:49.018Z,11.00
2018-01-02T17:04:17.395Z,8.17
2018-01-02T17:06:44.977Z,8.87
2018-01-02T17:09:12.582Z,8.27
2018-01-02T17:11:40.939Z,7.20
2018-01-02T17:14:08.516Z,9.10
2018-01-02T17:16:36.125Z,5.13
2018-01-02T17:19:04.713Z,5.73
2018-01-02T17:21:32.325Z,6.00
2018-01-02T17:23:59.906Z,9.53
2018-01-02T17:26:27.526Z,4.87
2018-01-02T17:28:55.886Z,5.87
2018-01-02T17:31:23.470Z,6.50
2018-01-02T17:33:51.077Z,5.20
2018-01-02T17:36:18.645Z,5.47
2018-01-02T17:38:46.267Z,7.10
2018-01-02T17:41:13.850Z,7.80
2018-01-02T17:43:41.457Z,8.00
2018-01-02T17:46:09.046Z,10.00
2018-01-02T17:48:38.229Z,11.10
2018-01-02T17:51:05.865Z,7.77
2018-01-02T17:53:35.111Z,9.13
2018-01-02T17:56:03.431Z,6.30
2018-01-02T17:58:31.015Z,9.20
2018-01-02T18:00:58.639Z,13.10
2018-01-02T18:03:26.230Z,11.63
2018-01-02T18:05:53.810Z,8.73
2018-01-02T18:08:21.435Z,9.50
2018-01-02T18:10:49.784Z,7.20
2018-01-02T18:13:17.391Z,8.27
2018-01-02T18:15:44.969Z,9.03
2018-01-02T18:18:12.576Z,11.20
2018-01-02T18:20:40.209Z,7.83
2018-01-02T18:23:08.535Z,7.93
2018-01-02T18:25:36.132Z,9.73
2018-01-02T18:28:04.735Z,6.63
2018-01-02T18:30:32.346Z,9.40
2018-01-02T18:32:59.919Z,10.07
2018-01-02T18:35:27.516Z,7.30
2018-01-02T18:37:55.086Z,8.40
2018-01-02T18:40:22.661Z,10.67
2018-01-02T18:42:50.257Z,9.40
2018-01-02T18:45:17.841Z,8.40
2018-01-02T18:47:45.446Z,8.83
2018-01-02T18:50:13.036Z,9.17
2018-01-02T18:52:40.642Z,8.63
2018-01-02T18:55:08.216Z,9.53
2018-01-02T18:57:35.797Z,9.87
2018-01-02T19:00:04.363Z,8.70
2018-01-02T19:02:31.950Z,10.80
2018-01-02T19:04:59.552Z,6.17
2018-01-02T19:07:27.127Z,11.10
2018-01-02T19:09:54.737Z,10.10
2018-01-02T19:12:22.305Z,6.73
2018-01-02T19:14:49.876Z,10.57
2018-01-02T19:17:17.477Z,9.03
2018-01-02T19:19:45.062Z,10.40
2018-01-02T19:22:12.666Z,5.47
2018-01-02T19:24:41.019Z,7.80
2018-01-02T19:27:09.587Z,7.53
2018-01-02T19:29:37.175Z,6.60
2018-01-02T19:32:06.994Z,8.20
2018-01-02T19:34:35.670Z,6.10
2018-01-02T19:37:04.014Z,6.73
2018-01-02T19:39:31.630Z,13.53
2018-01-02T19:41:59.230Z,11.43
2018-01-02T19:44:26.819Z,7.67
2018-01-02T19:46:54.426Z,7.40
2018-01-02T19:49:22.775Z,9.80
2018-01-02T19:51:50.397Z,5.77
2018-01-02T19:54:17.981Z,10.47
2018-01-02T19:56:45.555Z,8.03
2018-01-02T19:59:13.149Z,9.70
2018-01-02T20:01:40.746Z,10.20
2018-01-02T20:04:08.374Z,18.70
2018-01-02T20:06:35.968Z,9.27
2018-01-02T20:09:04.301Z,6.90
2018-01-02T20:11:31.886Z,12.00
2018-01-02T20:13:59.478Z,10.00
2018-01-02T20:16:27.091Z,10.70
2018-01-02T20:18:54.693Z,10.90
2018-01-02T20:21:23.073Z,8.90
2018-01-02T20:23:50.646Z,12.53
2018-01-02T20:26:18.265Z,10.63
2018-01-02T20:28:45.859Z,8.33
2018-01-02T20:31:14.212Z,7.93
2018-01-02T20:33:41.821Z,9.60
2018-01-02T20:36:09.406Z,8.13
2018-01-02T20:38:37.029Z,8.90
2018-01-02T20:41:05.426Z,11.20
2018-01-02T20:43:34.745Z,14.20
2018-01-02T20:46:02.361Z,14.77
2018-01-02T20:48:30.730Z,14.27
2018-01-02T20:50:58.364Z,14.37
2018-01-02T20:53:25.950Z,12.33
2018-01-02T20:55:53.558Z,13.30
2018-01-02T20:58:21.230Z,16.13
2018-01-02T21:00:48.858Z,12.43
2018-01-02T21:03:16.446Z,15.80
2018-01-02T21:05:44.034Z,14.83
2018-01-02T21:08:11.669Z,17.47
2018-01-02T21:10:39.253Z,16.77
2018-01-02T21:13:06.874Z,12.43
2018-01-02T21:15:35.522Z,14.43
2018-01-02T21:18:04.834Z,22.00
2018-01-02T21:20:32.414Z,13.13
2018-01-02T21:23:00.022Z,13.57
2018-01-02T21:25:28.409Z,13.90
2018-01-02T21:27:56.010Z,17.37
2018-01-02T21:30:23.642Z,12.63
2018-01-02T21:32:51.252Z,13.63
2018-01-02T21:35:18.870Z,13.80
2018-01-02T21:37:46.480Z,14.00
2018-01-02T21:40:14.834Z,11.77
2018-01-02T21:42:42.446Z,14.10
2018-01-02T21:45:10.042Z,15.87
2018-01-02T21:47:37.668Z,13.30
2018-01-02T21:50:05.253Z,12.90
2018-01-02T21:52:33.660Z,13.60
2018-01-02T21:55:01.246Z,13.67
2018-01-02T21:57:28.837Z,14.30
2018-01-02T21:59:56.450Z,11.30
2018-01-02T22:02:24.034Z,11.50
2018-01-02T22:04:51.641Z,12.00
2018-01-02T22:07:19.247Z,18.63
2018-01-02T22:09:47.626Z,11.10
2018-01-02T22:12:15.209Z,12.53
2018-01-02T22:14:42.822Z,13.37
2018-01-02T22:17:11.160Z,10.57
2018-01-02T22:19:38.740Z,11.60
2018-01-02T22:22:06.363Z,11.00
2018-01-02T22:24:33.946Z,10.77
2018-01-02T22:27:01.573Z,11.53
2018-01-02T22:29:29.921Z,10.43
2018-01-02T22:31:57.533Z,10.60
2018-01-02T22:34:25.142Z,9.17
2018-01-02T22:36:52.735Z,10.57
2018-01-02T22:39:21.105Z,9.57
2018-01-02T22:41:48.694Z,12.43
2018-01-02T22:44:16.290Z,13.83
2018-01-02T22:46:43.908Z,14.27
2018-01-02T22:49:12.257Z,17.80
2018-01-02T22:51:39.874Z,15.40
2018-01-02T22:54:07.464Z,13.20
2018-01-02T22:56:35.086Z,11.77
2018-01-02T22:59:03.891Z,9.87
2018-01-02T23:01:32.258Z,15.90
2018-01-02T23:04:00.649Z,10.10
2018-01-02T23:06:28.237Z,13.17
2018-01-02T23:08:55.851Z,10.70
2018-01-02T23:11:23.443Z,13.10
2018-01-02T23:13:51.061Z,9.20
2018-01-02T23:16:18.650Z,9.17
2018-01-02T23:18:46.232Z,9.10
2018-01-02T23:21:13.858Z,10.23
2018-01-02T23:23:41.443Z,14.30
2018-01-02T23:26:09.057Z,12.17
2018-01-02T23:28:36.628Z,10.83
2018-01-02T23:31:05.445Z,10.27
2018-01-02T23:33:33.492Z,13.30
2018-01-02T23:36:01.077Z,10.10
2018-01-02T23:38:29.460Z,14.40
2018-01-02T23:40:57.813Z,14.53
2018-01-02T23:43:25.428Z,14.57
2018-01-02T23:45:53.018Z,9.73
2018-01-02T23:48:20.596Z,13.30
2018-01-02T23:50:48.196Z,10.73
2018-01-02T23:53:15.784Z,10.20
2018-01-02T23:55:43.406Z,10.27
2018-01-02T23:58:11.754Z,10.57
